sensor_id;sensor_type;location;lat;lon;timestamp;pressure;altitude;pressure_sealevel;temperature;humidity
47815;BME280;33579;50.058;18.130;2022-08-19T00:00:21;98595.09;;;24.07;100.00
47815;BME280;33579;50.058;18.130;2022-08-19T00:01:23;98601.25;;;24.20;100.00
47815;BME280;33579;50.058;18.130;2022-08-19T00:02:30;98586.53;;;24.22;100.00
47815;BME280;33579;50.058;18.130;2022-08-19T00:03:31;98593.28;;;24.25;100.00
47815;BME280;33579;50.058;18.130;2022-08-19T00:04:34;98595.88;;;24.20;100.00
47815;BME280;33579;50.058;18.130;2022-08-19T00:05:36;98599.75;;;24.12;100.00
47815;BME280;33579;50.058;18.130;2022-08-19T00:06:40;98586.09;;;24.02;100.00
47815;BME280;33579;50.058;18.130;2022-08-19T00:07:42;98587.50;;;23.92;100.00
47815;BME280;33579;50.058;18.130;2022-08-19T00:08:44;98587.50;;;23.92;100.00
47815;BME280;33579;50.058;18.130;2022-08-19T00:09:45;98585.72;;;23.98;100.00
47815;BME280;33579;50.058;18.130;2022-08-19T00:10:47;98584.59;;;23.94;100.00
47815;BME280;33579;50.058;18.130;2022-08-19T00:11:49;98585.38;;;23.94;100.00
47815;BME280;33579;50.058;18.130;2022-08-19T00:12:51;98585.63;;;23.93;100.00
47815;BME280;33579;50.058;18.130;2022-08-19T00:13:54;98582.81;;;23.88;100.00
47815;BME280;33579;50.058;18.130;2022-08-19T00:14:56;98573.63;;;23.83;100.00
47815;BME280;33579;50.058;18.130;2022-08-19T00:15:58;98585.31;;;23.77;100.00
47815;BME280;33579;50.058;18.130;2022-08-19T00:17:00;98582.84;;;23.76;100.00
47815;BME280;33579;50.058;18.130;2022-08-19T00:18:02;98580.75;;;23.78;100.00
47815;BME280;33579;50.058;18.130;2022-08-19T00:19:03;98577.59;;;23.81;100.00
47815;BME280;33579;50.058;18.130;2022-08-19T00:20:06;98577.59;;;23.81;100.00
47815;BME280;33579;50.058;18.130;2022-08-19T00:21:07;98569.09;;;23.84;100.00
47815;BME280;33579;50.058;18.130;2022-08-19T00:22:09;98575.72;;;23.81;100.00
47815;BME280;33579;50.058;18.130;2022-08-19T00:23:11;98579.22;;;23.82;100.00
47815;BME280;33579;50.058;18.130;2022-08-19T00:24:13;98578.78;;;23.85;100.00
47815;BME280;33579;50.058;18.130;2022-08-19T00:25:16;98570.50;;;23.75;100.00
47815;BME280;33579;50.058;18.130;2022-08-19T00:26:18;98569.09;;;23.72;100.00
47815;BME280;33579;50.058;18.130;2022-08-19T00:27:19;98570.34;;;23.69;100.00
47815;BME280;33579;50.058;18.130;2022-08-19T00:28:27;98565.00;;;23.69;100.00
47815;BME280;33579;50.058;18.130;2022-08-19T00:29:28;98564.88;;;23.64;100.00
47815;BME280;33579;50.058;18.130;2022-08-19T00:30:30;98568.41;;;23.65;100.00
47815;BME280;33579;50.058;18.130;2022-08-19T00:31:31;98561.25;;;23.70;100.00
47815;BME280;33579;50.058;18.130;2022-08-19T00:32:33;98563.13;;;23.70;100.00
47815;BME280;33579;50.058;18.130;2022-08-19T00:33:35;98563.25;;;23.63;100.00
47815;BME280;33579;50.058;18.130;2022-08-19T00:34:37;98560.44;;;23.70;100.00
47815;BME280;33579;50.058;18.130;2022-08-19T00:35:38;98561.16;;;23.65;100.00
47815;BME280;33579;50.058;18.130;2022-08-19T00:36:41;98565.94;;;23.63;100.00
47815;BME280;33579;50.058;18.130;2022-08-19T00:37:42;98559.03;;;23.67;100.00
47815;BME280;33579;50.058;18.130;2022-08-19T00:38:44;98560.09;;;23.66;100.00
47815;BME280;33579;50.058;18.130;2022-08-19T00:39:46;98554.63;;;23.61;100.00
47815;BME280;33579;50.058;18.130;2022-08-19T00:40:49;98553.09;;;23.65;100.00
47815;BME280;33579;50.058;18.130;2022-08-19T00:41:51;98555.56;;;23.67;100.00
47815;BME280;33579;50.058;18.130;2022-08-19T00:42:53;98555.78;;;23.65;100.00
47815;BME280;33579;50.058;18.130;2022-08-19T00:44:10;98553.66;;;23.67;100.00
47815;BME280;33579;50.058;18.130;2022-08-19T00:45:16;98550.50;;;23.70;100.00
47815;BME280;33579;50.058;18.130;2022-08-19T00:46:18;98552.75;;;23.74;100.00
47815;BME280;33579;50.058;18.130;2022-08-19T00:47:20;98549.00;;;23.75;100.00
47815;BME280;33579;50.058;18.130;2022-08-19T00:48:21;98544.22;;;23.77;100.00
47815;BME280;33579;50.058;18.130;2022-08-19T00:49:29;98551.34;;;23.71;100.00
47815;BME280;33579;50.058;18.130;2022-08-19T00:50:33;98548.88;;;23.69;100.00
47815;BME280;33579;50.058;18.130;2022-08-19T00:51:35;98545.13;;;23.82;100.00
47815;BME280;33579;50.058;18.130;2022-08-19T00:52:40;98537.56;;;23.79;100.00
47815;BME280;33579;50.058;18.130;2022-08-19T00:53:43;98536.84;;;23.72;100.00
47815;BME280;33579;50.058;18.130;2022-08-19T00:54:45;98538.63;;;23.66;100.00
47815;BME280;33579;50.058;18.130;2022-08-19T00:55:55;98539.19;;;23.68;100.00
47815;BME280;33579;50.058;18.130;2022-08-19T00:56:59;98542.34;;;23.77;100.00
47815;BME280;33579;50.058;18.130;2022-08-19T00:58:06;98539.28;;;23.85;100.00
47815;BME280;33579;50.058;18.130;2022-08-19T00:59:09;98536.72;;;23.79;100.00
47815;BME280;33579;50.058;18.130;2022-08-19T01:00:15;98540.03;;;23.69;100.00
47815;BME280;33579;50.058;18.130;2022-08-19T01:01:16;98539.44;;;23.55;100.00
47815;BME280;33579;50.058;18.130;2022-08-19T01:02:18;98538.28;;;23.51;100.00
47815;BME280;33579;50.058;18.130;2022-08-19T01:03:23;98533.97;;;23.50;100.00
47815;BME280;33579;50.058;18.130;2022-08-19T01:04:24;98536.53;;;23.44;100.00
47815;BME280;33579;50.058;18.130;2022-08-19T01:05:27;98545.53;;;23.38;100.00
47815;BME280;33579;50.058;18.130;2022-08-19T01:06:30;98534.22;;;23.36;100.00
47815;BME280;33579;50.058;18.130;2022-08-19T01:07:34;98532.69;;;23.40;100.00
47815;BME280;33579;50.058;18.130;2022-08-19T01:08:38;98534.31;;;23.41;100.00
47815;BME280;33579;50.058;18.130;2022-08-19T01:09:40;98535.84;;;23.37;100.00
47815;BME280;33579;50.058;18.130;2022-08-19T01:10:45;98531.97;;;23.33;100.00
47815;BME280;33579;50.058;18.130;2022-08-19T01:11:48;98529.28;;;23.33;100.00
47815;BME280;33579;50.058;18.130;2022-08-19T01:12:51;98533.28;;;23.30;100.00
47815;BME280;33579;50.058;18.130;2022-08-19T01:13:54;98525.25;;;23.30;100.00
47815;BME280;33579;50.058;18.130;2022-08-19T01:14:56;98530.25;;;23.27;100.00
47815;BME280;33579;50.058;18.130;2022-08-19T01:16:03;98532.94;;;23.27;100.00
47815;BME280;33579;50.058;18.130;2022-08-19T01:17:07;98529.38;;;23.26;100.00
47815;BME280;33579;50.058;18.130;2022-08-19T01:18:13;98528.41;;;23.27;100.00
47815;BME280;33579;50.058;18.130;2022-08-19T01:19:25;98527.56;;;23.27;100.00
47815;BME280;33579;50.058;18.130;2022-08-19T01:20:28;98531.19;;;23.33;100.00
47815;BME280;33579;50.058;18.130;2022-08-19T01:21:43;98522.91;;;23.34;100.00
47815;BME280;33579;50.058;18.130;2022-08-19T01:22:52;98530.94;;;23.46;100.00
47815;BME280;33579;50.058;18.130;2022-08-19T01:23:54;98526.16;;;23.48;100.00
47815;BME280;33579;50.058;18.130;2022-08-19T01:24:56;98520.41;;;23.44;100.00
47815;BME280;33579;50.058;18.130;2022-08-19T01:25:59;98523.47;;;23.36;100.00
47815;BME280;33579;50.058;18.130;2022-08-19T01:27:04;98523.47;;;23.36;100.00
47815;BME280;33579;50.058;18.130;2022-08-19T01:28:20;98523.13;;;23.33;100.00
47815;BME280;33579;50.058;18.130;2022-08-19T01:29:42;98524.41;;;23.30;100.00
47815;BME280;33579;50.058;18.130;2022-08-19T01:30:45;98522.19;;;23.27;100.00
47815;BME280;33579;50.058;18.130;2022-08-19T01:31:51;98520.88;;;23.17;100.00
47815;BME280;33579;50.058;18.130;2022-08-19T01:32:54;98521.69;;;23.18;100.00
47815;BME280;33579;50.058;18.130;2022-08-19T01:33:57;98525.19;;;23.19;100.00
47815;BME280;33579;50.058;18.130;2022-08-19T01:34:58;98523.66;;;23.11;100.00
47815;BME280;33579;50.058;18.130;2022-08-19T01:36:13;98520.06;;;23.05;100.00
47815;BME280;33579;50.058;18.130;2022-08-19T01:37:15;98519.47;;;23.03;100.00
47815;BME280;33579;50.058;18.130;2022-08-19T01:38:27;98520.75;;;23.00;100.00
47815;BME280;33579;50.058;18.130;2022-08-19T01:39:28;98527.31;;;23.05;100.00
47815;BME280;33579;50.058;18.130;2022-08-19T01:40:32;98525.06;;;23.01;100.00
47815;BME280;33579;50.058;18.130;2022-08-19T01:41:34;98522.59;;;22.88;100.00
47815;BME280;33579;50.058;18.130;2022-08-19T01:42:36;98524.22;;;22.77;100.00
47815;BME280;33579;50.058;18.130;2022-08-19T01:43:38;98516.75;;;22.67;100.00
47815;BME280;33579;50.058;18.130;2022-08-19T01:45:00;98513.13;;;22.62;100.00
47815;BME280;33579;50.058;18.130;2022-08-19T01:46:02;98515.56;;;22.63;100.00
47815;BME280;33579;50.058;18.130;2022-08-19T01:47:04;98516.75;;;22.67;100.00
47815;BME280;33579;50.058;18.130;2022-08-19T01:48:09;98513.56;;;22.58;100.00
47815;BME280;33579;50.058;18.130;2022-08-19T01:49:10;98519.63;;;22.54;100.00
47815;BME280;33579;50.058;18.130;2022-08-19T01:50:12;98519.25;;;22.50;100.00
47815;BME280;33579;50.058;18.130;2022-08-19T01:51:14;98525.84;;;22.48;100.00
47815;BME280;33579;50.058;18.130;2022-08-19T01:52:16;98521.53;;;22.46;100.00
47815;BME280;33579;50.058;18.130;2022-08-19T01:53:17;98530.19;;;22.49;100.00
47815;BME280;33579;50.058;18.130;2022-08-19T01:54:21;98532.41;;;22.52;100.00
47815;BME280;33579;50.058;18.130;2022-08-19T01:55:28;98524.53;;;22.57;100.00
47815;BME280;33579;50.058;18.130;2022-08-19T01:56:29;98524.88;;;22.60;100.00
47815;BME280;33579;50.058;18.130;2022-08-19T01:57:31;98522.00;;;22.74;100.00
47815;BME280;33579;50.058;18.130;2022-08-19T01:58:44;98520.84;;;22.94;100.00
47815;BME280;33579;50.058;18.130;2022-08-19T01:59:48;98518.88;;;22.89;100.00
47815;BME280;33579;50.058;18.130;2022-08-19T02:00:49;98520.59;;;22.83;100.00
47815;BME280;33579;50.058;18.130;2022-08-19T02:01:51;98513.59;;;22.82;100.00
47815;BME280;33579;50.058;18.130;2022-08-19T02:02:53;98523.75;;;22.80;100.00
47815;BME280;33579;50.058;18.130;2022-08-19T02:03:55;98517.69;;;22.73;100.00
47815;BME280;33579;50.058;18.130;2022-08-19T02:04:58;98511.72;;;22.71;100.00
47815;BME280;33579;50.058;18.130;2022-08-19T02:06:02;98511.72;;;22.71;100.00
47815;BME280;33579;50.058;18.130;2022-08-19T02:07:05;98508.09;;;22.65;100.00
47815;BME280;33579;50.058;18.130;2022-08-19T02:08:07;98513.13;;;22.62;100.00
47815;BME280;33579;50.058;18.130;2022-08-19T02:09:09;98521.75;;;22.64;100.00
47815;BME280;33579;50.058;18.130;2022-08-19T02:10:14;98510.66;;;22.60;100.00
47815;BME280;33579;50.058;18.130;2022-08-19T02:11:20;98509.72;;;22.54;100.00
47815;BME280;33579;50.058;18.130;2022-08-19T02:12:22;98519.25;;;22.50;100.00
47815;BME280;33579;50.058;18.130;2022-08-19T02:13:25;98523.78;;;22.50;100.00
47815;BME280;33579;50.058;18.130;2022-08-19T02:14:27;98515.75;;;22.50;100.00
47815;BME280;33579;50.058;18.130;2022-08-19T02:15:29;98520.31;;;22.49;100.00
47815;BME280;33579;50.058;18.130;2022-08-19T02:16:30;98517.63;;;22.49;100.00
47815;BME280;33579;50.058;18.130;2022-08-19T02:17:32;98510.75;;;22.53;100.00
47815;BME280;33579;50.058;18.130;2022-08-19T02:18:33;98504.94;;;22.56;100.00
47815;BME280;33579;50.058;18.130;2022-08-19T02:19:35;98507.84;;;22.55;100.00
47815;BME280;33579;50.058;18.130;2022-08-19T02:20:41;98509.13;;;22.52;100.00
47815;BME280;33579;50.058;18.130;2022-08-19T02:21:43;98511.44;;;22.49;100.00
47815;BME280;33579;50.058;18.130;2022-08-19T02:22:44;98509.13;;;22.52;100.00
47815;BME280;33579;50.058;18.130;2022-08-19T02:23:46;98504.94;;;22.56;100.00
47815;BME280;33579;50.058;18.130;2022-08-19T02:24:48;98508.66;;;22.55;100.00
47815;BME280;33579;50.058;18.130;2022-08-19T02:25:51;98505.63;;;22.52;100.00
47815;BME280;33579;50.058;18.130;2022-08-19T02:26:53;98505.88;;;22.50;100.00
47815;BME280;33579;50.058;18.130;2022-08-19T02:27:55;98502.88;;;22.40;100.00
47815;BME280;33579;50.058;18.130;2022-08-19T02:28:56;98496.09;;;22.37;100.00
47815;BME280;33579;50.058;18.130;2022-08-19T02:30:00;98498.19;;;22.35;100.00
47815;BME280;33579;50.058;18.130;2022-08-19T02:31:03;98492.72;;;22.30;100.00
47815;BME280;33579;50.058;18.130;2022-08-19T02:32:04;98485.38;;;22.25;100.00
47815;BME280;33579;50.058;18.130;2022-08-19T02:33:06;98490.72;;;22.25;100.00
47815;BME280;33579;50.058;18.130;2022-08-19T02:34:07;98484.88;;;22.16;100.00
47815;BME280;33579;50.058;18.130;2022-08-19T02:35:10;98490.91;;;22.12;100.00
47815;BME280;33579;50.058;18.130;2022-08-19T02:36:15;98484.50;;;22.13;100.00
47815;BME280;33579;50.058;18.130;2022-08-19T02:37:21;98489.09;;;22.24;100.00
47815;BME280;33579;50.058;18.130;2022-08-19T02:38:22;98490.94;;;22.24;100.00
47815;BME280;33579;50.058;18.130;2022-08-19T02:39:24;98494.44;;;22.24;100.00
47815;BME280;33579;50.058;18.130;2022-08-19T02:40:26;98493.41;;;22.25;100.00
47815;BME280;33579;50.058;18.130;2022-08-19T02:41:30;98483.28;;;22.27;100.00
47815;BME280;33579;50.058;18.130;2022-08-19T02:42:32;98483.41;;;22.32;100.00
47815;BME280;33579;50.058;18.130;2022-08-19T02:43:37;98489.47;;;22.40;100.00
47815;BME280;33579;50.058;18.130;2022-08-19T02:44:39;98483.28;;;22.39;100.00
47815;BME280;33579;50.058;18.130;2022-08-19T02:45:41;98478.41;;;22.36;100.00
47815;BME280;33579;50.058;18.130;2022-08-19T02:46:44;98475.72;;;22.36;100.00
47815;BME280;33579;50.058;18.130;2022-08-19T02:47:46;98478.78;;;22.40;100.00
47815;BME280;33579;50.058;18.130;2022-08-19T02:48:53;98477.50;;;22.42;100.00
47815;BME280;33579;50.058;18.130;2022-08-19T02:49:55;98476.56;;;22.37;100.00
47815;BME280;33579;50.058;18.130;2022-08-19T02:50:57;98472.47;;;22.34;100.00
47815;BME280;33579;50.058;18.130;2022-08-19T02:51:58;98474.66;;;22.37;100.00
47815;BME280;33579;50.058;18.130;2022-08-19T02:53:00;98478.19;;;22.38;100.00
47815;BME280;33579;50.058;18.130;2022-08-19T02:54:02;98479.13;;;22.43;100.00
47815;BME280;33579;50.058;18.130;2022-08-19T02:55:05;98484.81;;;22.47;100.00
47815;BME280;33579;50.058;18.130;2022-08-19T02:56:07;98485.28;;;22.44;100.00
47815;BME280;33579;50.058;18.130;2022-08-19T02:57:09;98486.13;;;22.44;100.00
47815;BME280;33579;50.058;18.130;2022-08-19T02:58:12;98489.44;;;22.28;100.00
47815;BME280;33579;50.058;18.130;2022-08-19T02:59:14;98489.78;;;22.20;100.00
47815;BME280;33579;50.058;18.130;2022-08-19T03:00:16;98487.03;;;22.08;100.00
47815;BME280;33579;50.058;18.130;2022-08-19T03:01:23;98490.72;;;21.95;100.00
47815;BME280;33579;50.058;18.130;2022-08-19T03:02:25;98489.47;;;21.79;100.00
47815;BME280;33579;50.058;18.130;2022-08-19T03:03:27;98491.75;;;21.75;100.00
47815;BME280;33579;50.058;18.130;2022-08-19T03:04:28;98495.88;;;21.78;100.00
47815;BME280;33579;50.058;18.130;2022-08-19T03:05:30;98496.31;;;21.74;100.00
47815;BME280;33579;50.058;18.130;2022-08-19T03:06:52;98499.22;;;21.73;100.00
47815;BME280;33579;50.058;18.130;2022-08-19T03:07:53;98500.97;;;21.60;100.00
47815;BME280;33579;50.058;18.130;2022-08-19T03:08:55;98501.03;;;21.54;100.00
47815;BME280;33579;50.058;18.130;2022-08-19T03:09:58;98504.75;;;21.53;100.00
47815;BME280;33579;50.058;18.130;2022-08-19T03:10:59;98506.97;;;21.56;100.00
47815;BME280;33579;50.058;18.130;2022-08-19T03:12:03;98506.78;;;21.57;100.00
47815;BME280;33579;50.058;18.130;2022-08-19T03:13:04;98512.78;;;21.53;100.00
47815;BME280;33579;50.058;18.130;2022-08-19T03:14:08;98506.84;;;21.51;100.00
47815;BME280;33579;50.058;18.130;2022-08-19T03:15:09;98513.00;;;21.51;100.00
47815;BME280;33579;50.058;18.130;2022-08-19T03:16:12;98513.38;;;21.55;100.00
47815;BME280;33579;50.058;18.130;2022-08-19T03:17:13;98501.91;;;21.47;100.00
47815;BME280;33579;50.058;18.130;2022-08-19T03:18:16;98505.63;;;21.46;100.00
47815;BME280;33579;50.058;18.130;2022-08-19T03:19:19;98506.00;;;21.50;100.00
47815;BME280;33579;50.058;18.130;2022-08-19T03:20:21;98509.06;;;21.54;100.00
47815;BME280;33579;50.058;18.130;2022-08-19T03:21:24;98514.94;;;21.62;100.00
47815;BME280;33579;50.058;18.130;2022-08-19T03:22:26;98505.22;;;21.68;100.00
47815;BME280;33579;50.058;18.130;2022-08-19T03:23:27;98510.38;;;21.70;100.00
47815;BME280;33579;50.058;18.130;2022-08-19T03:24:29;98517.56;;;21.69;100.00
47815;BME280;33579;50.058;18.130;2022-08-19T03:25:36;98517.34;;;21.71;100.00
47815;BME280;33579;50.058;18.130;2022-08-19T03:26:40;98514.44;;;21.72;100.00
47815;BME280;33579;50.058;18.130;2022-08-19T03:27:42;98514.88;;;21.69;100.00
47815;BME280;33579;50.058;18.130;2022-08-19T03:28:44;98522.03;;;21.75;100.00
47815;BME280;33579;50.058;18.130;2022-08-19T03:29:52;98525.38;;;21.89;100.00
47815;BME280;33579;50.058;18.130;2022-08-19T03:31:14;98529.09;;;21.88;100.00
47815;BME280;33579;50.058;18.130;2022-08-19T03:32:35;98533.41;;;21.89;100.00
47815;BME280;33579;50.058;18.130;2022-08-19T03:33:45;98528.03;;;21.89;100.00
47815;BME280;33579;50.058;18.130;2022-08-19T03:34:51;98530.50;;;21.91;100.00
47815;BME280;33579;50.058;18.130;2022-08-19T03:36:04;98536.06;;;21.89;100.00
47815;BME280;33579;50.058;18.130;2022-08-19T03:37:09;98543.91;;;21.91;100.00
47815;BME280;33579;50.058;18.130;2022-08-19T03:38:10;98540.25;;;21.85;100.00
47815;BME280;33579;50.058;18.130;2022-08-19T03:39:13;98542.47;;;21.88;100.00
47815;BME280;33579;50.058;18.130;2022-08-19T03:40:15;98548.94;;;21.81;100.00
47815;BME280;33579;50.058;18.130;2022-08-19T03:41:21;98546.56;;;21.72;100.00
47815;BME280;33579;50.058;18.130;2022-08-19T03:42:23;98550.72;;;21.68;100.00
47815;BME280;33579;50.058;18.130;2022-08-19T03:43:45;98551.78;;;21.67;100.00
47815;BME280;33579;50.058;18.130;2022-08-19T03:44:47;98553.19;;;21.70;100.00
47815;BME280;33579;50.058;18.130;2022-08-19T03:45:48;98557.06;;;21.74;100.00
47815;BME280;33579;50.058;18.130;2022-08-19T03:46:53;98562.84;;;21.71;100.00
47815;BME280;33579;50.058;18.130;2022-08-19T03:48:58;98555.22;;;21.74;100.00
47815;BME280;33579;50.058;18.130;2022-08-19T03:50:00;98555.56;;;21.78;100.00
47815;BME280;33579;50.058;18.130;2022-08-19T03:51:01;98559.53;;;21.75;100.00
47815;BME280;33579;50.058;18.130;2022-08-19T03:52:04;98556.00;;;21.75;100.00
47815;BME280;33579;50.058;18.130;2022-08-19T03:53:06;98562.78;;;21.78;100.00
47815;BME280;33579;50.058;18.130;2022-08-19T03:54:11;98556.00;;;21.75;100.00
47815;BME280;33579;50.058;18.130;2022-08-19T03:55:13;98556.00;;;21.75;100.00
47815;BME280;33579;50.058;18.130;2022-08-19T03:56:15;98560.69;;;21.80;100.00
47815;BME280;33579;50.058;18.130;2022-08-19T03:57:17;98561.09;;;21.83;100.00
47815;BME280;33579;50.058;18.130;2022-08-19T03:58:18;98567.63;;;21.87;100.00
47815;BME280;33579;50.058;18.130;2022-08-19T03:59:25;98569.41;;;21.94;100.00
47815;BME280;33579;50.058;18.130;2022-08-19T04:00:27;98571.19;;;22.00;100.00
47815;BME280;33579;50.058;18.130;2022-08-19T04:01:28;98577.75;;;22.04;100.00
47815;BME280;33579;50.058;18.130;2022-08-19T04:02:35;98573.78;;;22.07;100.00
47815;BME280;33579;50.058;18.130;2022-08-19T04:03:38;98581.34;;;22.10;100.00
47815;BME280;33579;50.058;18.130;2022-08-19T04:04:42;98576.38;;;22.13;100.00
47815;BME280;33579;50.058;18.130;2022-08-19T04:05:44;98579.44;;;22.17;100.00
47815;BME280;33579;50.058;18.130;2022-08-19T04:06:46;98568.84;;;22.22;100.00
47815;BME280;33579;50.058;18.130;2022-08-19T04:07:48;98569.91;;;22.21;100.00
47815;BME280;33579;50.058;18.130;2022-08-19T04:08:51;98572.34;;;22.23;100.00
47815;BME280;33579;50.058;18.130;2022-08-19T04:09:53;98576.28;;;22.20;100.00
47815;BME280;33579;50.058;18.130;2022-08-19T04:10:55;98567.47;;;22.20;100.00
47815;BME280;33579;50.058;18.130;2022-08-19T04:11:58;98578.63;;;22.16;100.00
47815;BME280;33579;50.058;18.130;2022-08-19T04:12:59;98577.06;;;22.09;100.00
47815;BME280;33579;50.058;18.130;2022-08-19T04:14:01;98572.38;;;22.04;100.00
47815;BME280;33579;50.058;18.130;2022-08-19T04:15:05;98574.69;;;22.00;100.00
47815;BME280;33579;50.058;18.130;2022-08-19T04:16:06;98568.59;;;21.93;100.00
47815;BME280;33579;50.058;18.130;2022-08-19T04:17:08;98571.72;;;21.90;100.00
47815;BME280;33579;50.058;18.130;2022-08-19T04:18:10;98574.41;;;21.90;100.00
47815;BME280;33579;50.058;18.130;2022-08-19T04:19:12;98573.47;;;21.96;100.00
47815;BME280;33579;50.058;18.130;2022-08-19T04:20:14;98573.28;;;21.98;100.00
47815;BME280;33579;50.058;18.130;2022-08-19T04:21:19;98578.41;;;21.99;100.00
47815;BME280;33579;50.058;18.130;2022-08-19T04:22:20;98577.97;;;22.02;100.00
47815;BME280;33579;50.058;18.130;2022-08-19T04:23:23;98572.59;;;22.02;100.00
47815;BME280;33579;50.058;18.130;2022-08-19T04:24:24;98569.72;;;22.04;100.00
47815;BME280;33579;50.058;18.130;2022-08-19T04:25:26;98569.00;;;22.09;100.00
47815;BME280;33579;50.058;18.130;2022-08-19T04:26:31;98570.13;;;22.01;100.00
47815;BME280;33579;50.058;18.130;2022-08-19T04:27:33;98566.19;;;22.03;100.00
47815;BME280;33579;50.058;18.130;2022-08-19T04:28:35;98577.28;;;22.07;100.00
47815;BME280;33579;50.058;18.130;2022-08-19T04:29:36;98580.78;;;22.08;100.00
47815;BME280;33579;50.058;18.130;2022-08-19T04:30:46;98580.47;;;22.16;100.00
47815;BME280;33579;50.058;18.130;2022-08-19T04:31:49;98582.25;;;22.22;100.00
47815;BME280;33579;50.058;18.130;2022-08-19T04:32:50;98585.97;;;22.21;100.00
47815;BME280;33579;50.058;18.130;2022-08-19T04:33:53;98588.56;;;22.28;100.00
47815;BME280;33579;50.058;18.130;2022-08-19T04:34:55;98583.56;;;22.31;100.00
47815;BME280;33579;50.058;18.130;2022-08-19T04:36:21;98581.72;;;22.32;100.00
47815;BME280;33579;50.058;18.130;2022-08-19T04:37:24;98589.91;;;22.37;100.00
47815;BME280;33579;50.058;18.130;2022-08-19T04:38:26;98585.97;;;22.40;100.00
47815;BME280;33579;50.058;18.130;2022-08-19T04:39:30;98579.09;;;22.44;100.00
47815;BME280;33579;50.058;18.130;2022-08-19T04:40:31;98580.31;;;22.48;100.00
47815;BME280;33579;50.058;18.130;2022-08-19T04:41:33;98575.53;;;22.50;100.00
47815;BME280;33579;50.058;18.130;2022-08-19T04:42:35;98577.31;;;22.56;100.00
47815;BME280;33579;50.058;18.130;2022-08-19T04:43:38;98576.88;;;22.59;100.00
47815;BME280;33579;50.058;18.130;2022-08-19T04:44:40;98584.44;;;22.63;100.00
47815;BME280;33579;50.058;18.130;2022-08-19T04:45:46;98585.34;;;22.56;100.00
47815;BME280;33579;50.058;18.130;2022-08-19T04:46:49;98581.41;;;22.59;100.00
47815;BME280;33579;50.058;18.130;2022-08-19T04:47:55;98581.31;;;22.66;100.00
47815;BME280;33579;50.058;18.130;2022-08-19T04:48:59;98579.78;;;22.58;100.00
47815;BME280;33579;50.058;18.130;2022-08-19T04:50:10;98577.44;;;22.43;100.00
47815;BME280;33579;50.058;18.130;2022-08-19T04:51:13;98577.31;;;22.38;100.00
47815;BME280;33579;50.058;18.130;2022-08-19T04:52:14;98576.38;;;22.32;100.00
47815;BME280;33579;50.058;18.130;2022-08-19T04:53:16;98579.50;;;22.29;100.00
47815;BME280;33579;50.058;18.130;2022-08-19T04:54:18;98576.22;;;22.27;100.00
47815;BME280;33579;50.058;18.130;2022-08-19T04:55:41;98593.66;;;22.17;100.00
47815;BME280;33579;50.058;18.130;2022-08-19T04:56:43;98586.06;;;22.14;100.00
47815;BME280;33579;50.058;18.130;2022-08-19T04:57:44;98588.66;;;22.21;100.00
47815;BME280;33579;50.058;18.130;2022-08-19T04:58:46;98586.81;;;22.22;100.00
47815;BME280;33579;50.058;18.130;2022-08-19T04:59:48;98589.03;;;22.25;100.00
47815;BME280;33579;50.058;18.130;2022-08-19T05:00:50;98582.63;;;22.26;100.00
47815;BME280;33579;50.058;18.130;2022-08-19T05:01:52;98582.41;;;22.27;100.00
47815;BME280;33579;50.058;18.130;2022-08-19T05:02:54;98584.25;;;22.27;100.00
47815;BME280;33579;50.058;18.130;2022-08-19T05:03:56;98578.56;;;22.23;100.00
47815;BME280;33579;50.058;18.130;2022-08-19T05:04:58;98574.16;;;22.29;100.00
47815;BME280;33579;50.058;18.130;2022-08-19T05:06:07;98583.00;;;22.29;100.00
47815;BME280;33579;50.058;18.130;2022-08-19T05:07:09;98578.22;;;22.31;100.00
47815;BME280;33579;50.058;18.130;2022-08-19T05:08:12;98587.88;;;22.32;100.00
47815;BME280;33579;50.058;18.130;2022-08-19T05:09:16;98580.00;;;22.38;100.00
47815;BME280;33579;50.058;18.130;2022-08-19T05:10:17;98584.06;;;22.40;100.00
47815;BME280;33579;50.058;18.130;2022-08-19T05:11:21;98589.16;;;22.49;100.00
47815;BME280;33579;50.058;18.130;2022-08-19T05:12:27;98581.97;;;22.61;100.00
47815;BME280;33579;50.058;18.130;2022-08-19T05:13:29;98578.03;;;22.64;100.00
47815;BME280;33579;50.058;18.130;2022-08-19T05:14:31;98582.13;;;22.66;100.00
47815;BME280;33579;50.058;18.130;2022-08-19T05:15:32;98579.78;;;22.70;100.00
47815;BME280;33579;50.058;18.130;2022-08-19T05:16:35;98581.69;;;22.69;100.00
47815;BME280;33579;50.058;18.130;2022-08-19T05:17:36;98584.25;;;22.76;100.00
47815;BME280;33579;50.058;18.130;2022-08-19T05:18:40;98586.84;;;22.83;100.00
47815;BME280;33579;50.058;18.130;2022-08-19T05:19:41;98586.16;;;22.87;100.00
47815;BME280;33579;50.058;18.130;2022-08-19T05:20:43;98585.00;;;22.95;100.00
47815;BME280;33579;50.058;18.130;2022-08-19T05:21:44;98576.28;;;23.00;100.00
47815;BME280;33579;50.058;18.130;2022-08-19T05:22:47;98577.69;;;23.14;100.00
47815;BME280;33579;50.058;18.130;2022-08-19T05:23:48;98586.38;;;23.28;100.00
47815;BME280;33579;50.058;18.130;2022-08-19T05:24:50;98574.47;;;23.36;100.00
47815;BME280;33579;50.058;18.130;2022-08-19T05:26:11;98577.25;;;23.41;100.00
47815;BME280;33579;50.058;18.130;2022-08-19T05:27:13;98578.91;;;23.42;100.00
47815;BME280;33579;50.058;18.130;2022-08-19T05:28:15;98578.91;;;23.54;100.00
47815;BME280;33579;50.058;18.130;2022-08-19T05:29:19;98587.44;;;23.63;100.00